Time;durP1;ratioP1;P1;durP2;ratioP2;P2;SDS_P1;SDS_P2;PMS_P1;PMS_P2;Temp;Humidity;BMP_temperature;BMP_pressure;BME280_temperature;BME280_humidity;BME280_pressure;Samples;Min_cycle;Max_cycle;Signal;HPM_P1;HPM_P2
2021/03/11 00:01:15;;;;;;;24.23;16.40;;;7.90;93.80;;;;;;4994017;28;20080;-69
2021/03/11 00:03:41;;;;;;;26.70;17.73;;;7.80;93.70;;;;;;4976849;28;20027;-69
2021/03/11 00:06:07;;;;;;;23.05;16.20;;;7.80;93.80;;;;;;4974810;28;20027;-67
2021/03/11 00:08:32;;;;;;;21.77;16.60;;;7.80;93.70;;;;;;4974154;28;20049;-68
2021/03/11 00:10:58;;;;;;;22.90;16.83;;;7.80;93.70;;;;;;4972921;28;20039;-69
2021/03/11 00:13:23;;;;;;;25.83;17.00;;;7.90;93.60;;;;;;4972500;28;20042;-68
2021/03/11 00:15:49;;;;;;;23.98;17.13;;;7.90;93.60;;;;;;4973818;28;20046;-68
2021/03/11 00:18:15;;;;;;;23.30;16.15;;;7.90;93.60;;;;;;4974216;28;20454;-69
2021/03/11 00:20:41;;;;;;;27.48;20.95;;;7.90;93.50;;;;;;4974427;28;20074;-69
2021/03/11 00:23:06;;;;;;;36.10;27.02;;;7.90;93.40;;;;;;4973755;28;20059;-69
2021/03/11 00:25:34;;;;;;;28.80;17.80;;;8.00;93.40;;;;;;4972852;28;20050;-67
2021/03/11 00:27:59;;;;;;;22.75;16.58;;;8.00;93.30;;;;;;4985330;28;20022;-68
2021/03/11 00:30:26;;;;;;;21.58;15.93;;;7.90;93.30;;;;;;4992478;28;20383;-70
2021/03/11 00:32:52;;;;;;;24.52;17.38;;;8.00;93.30;;;;;;4992282;28;20054;-69
2021/03/11 00:35:18;;;;;;;18.80;15.75;;;8.00;93.30;;;;;;4991714;28;20033;-70
2021/03/11 00:37:45;;;;;;;19.67;15.50;;;8.00;93.30;;;;;;4992780;28;20026;-69
2021/03/11 00:40:13;;;;;;;21.92;16.77;;;8.00;93.30;;;;;;4991919;28;20022;-69
2021/03/11 00:42:39;;;;;;;25.33;17.13;;;8.00;93.40;;;;;;4993424;28;20136;-69
2021/03/11 00:45:06;;;;;;;23.85;16.05;;;8.00;93.30;;;;;;4992788;28;20053;-70
2021/03/11 00:47:32;;;;;;;21.00;15.88;;;8.00;93.20;;;;;;4991709;28;20502;-70
2021/03/11 00:49:58;;;;;;;24.48;16.55;;;8.10;93.30;;;;;;4992251;28;20053;-70
2021/03/11 00:52:23;;;;;;;20.45;15.40;;;8.10;93.20;;;;;;4990608;28;20019;-69
2021/03/11 00:54:49;;;;;;;21.83;15.40;;;8.10;93.10;;;;;;5005579;28;20489;-69
2021/03/11 00:57:14;;;;;;;20.08;15.85;;;8.10;93.10;;;;;;5011960;28;20060;-69
2021/03/11 00:59:40;;;;;;;22.08;16.85;;;8.10;93.00;;;;;;5011723;28;20057;-70
2021/03/11 01:02:06;;;;;;;25.27;17.13;;;8.20;93.10;;;;;;5013184;28;20044;-70
2021/03/11 01:04:31;;;;;;;21.23;15.88;;;8.20;93.00;;;;;;5011383;28;20088;-71
2021/03/11 01:06:57;;;;;;;18.60;14.70;;;8.20;93.00;;;;;;5012097;28;20795;-70
2021/03/11 01:09:23;;;;;;;22.83;15.57;;;8.20;92.90;;;;;;5012433;28;20037;-70
2021/03/11 01:11:48;;;;;;;19.23;14.82;;;8.20;92.90;;;;;;5012986;28;20474;-70
2021/03/11 01:14:14;;;;;;;17.20;13.63;;;8.20;92.90;;;;;;5011525;28;20499;-70
2021/03/11 01:16:43;;;;;;;24.90;17.83;;;8.20;92.90;;;;;;5011291;28;20028;-70
2021/03/11 01:19:08;;;;;;;22.30;15.95;;;8.20;92.90;;;;;;5010347;28;20033;-69
2021/03/11 01:21:34;;;;;;;18.10;15.38;;;8.20;92.90;;;;;;5012837;28;20021;-70
2021/03/11 01:23:59;;;;;;;27.30;19.08;;;8.20;92.90;;;;;;5012648;28;20021;-71
2021/03/11 01:26:25;;;;;;;35.05;23.70;;;8.20;93.00;;;;;;5011306;28;20402;-69
2021/03/11 01:28:51;;;;;;;27.33;18.13;;;8.30;93.30;;;;;;5012403;28;20041;-70
2021/03/11 01:31:16;;;;;;;39.13;24.23;;;8.30;93.00;;;;;;5011906;28;20022;-69
2021/03/11 01:33:42;;;;;;;34.05;23.80;;;8.30;93.00;;;;;;5011765;28;20026;-71
2021/03/11 01:36:08;;;;;;;40.00;26.75;;;8.30;93.10;;;;;;5012232;28;20478;-68
2021/03/11 01:38:33;;;;;;;49.40;29.45;;;8.30;93.20;;;;;;5012475;28;20019;-70
2021/03/11 01:40:59;;;;;;;30.40;19.85;;;8.30;93.30;;;;;;5011702;28;20077;-70
2021/03/11 01:43:24;;;;;;;28.55;18.67;;;8.30;93.30;;;;;;5010706;28;20080;-70
2021/03/11 01:45:51;;;;;;;28.92;20.38;;;8.30;93.40;;;;;;5012359;28;20088;-69
2021/03/11 01:48:16;;;;;;;23.15;17.02;;;8.30;93.50;;;;;;5011525;28;20037;-70
2021/03/11 01:50:42;;;;;;;30.33;18.83;;;8.30;93.60;;;;;;5012032;28;20121;-69
2021/03/11 01:53:08;;;;;;;39.22;24.40;;;8.30;93.70;;;;;;5012181;28;20521;-68
2021/03/11 01:55:35;;;;;;;29.13;19.02;;;8.20;93.80;;;;;;5011791;28;20076;-69
2021/03/11 01:58:01;;;;;;;28.52;20.13;;;8.20;93.80;;;;;;5011022;28;20109;-69
2021/03/11 02:00:27;;;;;;;26.52;17.63;;;8.20;93.80;;;;;;5011849;28;20105;-69
2021/03/11 02:02:54;;;;;;;25.02;16.90;;;8.20;93.80;;;;;;5011557;28;20101;-70
2021/03/11 02:05:23;;;;;;;20.13;14.60;;;8.30;93.90;;;;;;5015806;28;20025;-70
2021/03/11 02:07:48;;;;;;;22.38;17.52;;;8.30;93.90;;;;;;5014645;28;20018;-70
2021/03/11 02:10:20;;;;;;;17.17;15.45;;;8.30;93.90;;;;;;5013646;28;20096;-71
2021/03/11 02:13:16;;;;;;;33.75;26.83;;;8.40;93.80;;;;;;5015840;28;20027;-70
2021/03/11 02:15:49;;;;;;;16.48;13.48;;;8.30;93.80;;;;;;5015208;28;20091;-71
2021/03/11 02:18:27;;;;;;;17.08;14.07;;;8.30;93.70;;;;;;5015802;28;20049;-70
2021/03/11 02:21:11;;;;;;;15.90;12.10;;;8.30;93.70;;;;;;5015779;28;20113;-71
2021/03/11 02:24:08;;;;;;;15.43;11.98;;;8.40;93.80;;;;;;5014903;28;20438;-70
2021/03/11 02:27:11;;;;;;;16.52;12.10;;;8.40;93.80;;;;;;5014547;28;20049;-70
2021/03/11 02:29:40;;;;;;;15.90;12.07;;;8.40;93.70;;;;;;5014851;28;20076;-70
2021/03/11 02:32:10;;;;;;;16.65;12.55;;;8.40;93.80;;;;;;5015427;28;20084;-70
2021/03/11 02:34:43;;;;;;;21.67;13.98;;;8.40;93.80;;;;;;5015575;28;20026;-70
2021/03/11 02:37:17;;;;;;;29.48;22.73;;;8.40;93.80;;;;;;5014224;28;20025;-68
2021/03/11 02:39:53;;;;;;;14.30;11.48;;;8.40;93.90;;;;;;5014369;28;20026;-70
2021/03/11 02:42:21;;;;;;;12.95;10.95;;;8.40;94.00;;;;;;5013658;28;20383;-69
2021/03/11 02:44:47;;;;;;;28.20;18.75;;;8.50;94.00;;;;;;5014449;28;20022;-68
2021/03/11 02:47:13;;;;;;;14.43;10.55;;;8.50;94.00;;;;;;5014945;28;20095;-69
2021/03/11 02:49:39;;;;;;;12.90;10.45;;;8.50;94.10;;;;;;5015358;28;20077;-69
2021/03/11 02:52:06;;;;;;;15.25;11.27;;;8.50;94.10;;;;;;5014495;28;20128;-70
2021/03/11 02:54:32;;;;;;;21.52;14.95;;;8.50;94.40;;;;;;5013542;28;20382;-70
2021/03/11 02:57:01;;;;;;;21.75;18.13;;;8.50;94.10;;;;;;5014974;28;20497;-69
2021/03/11 02:59:27;;;;;;;12.90;11.30;;;8.50;94.20;;;;;;5014455;28;20022;-69
2021/03/11 03:01:54;;;;;;;10.88;9.45;;;8.50;94.20;;;;;;5014905;28;20034;-70
2021/03/11 03:04:20;;;;;;;12.73;9.52;;;8.60;94.30;;;;;;5014598;28;20018;-69
2021/03/11 03:06:46;;;;;;;11.20;9.65;;;8.60;94.20;;;;;;5014275;28;20061;-68
2021/03/11 03:09:12;;;;;;;10.65;9.30;;;8.60;94.20;;;;;;5014550;28;20049;-70
2021/03/11 03:11:38;;;;;;;11.60;9.15;;;8.60;94.20;;;;;;5013928;28;20041;-69
2021/03/11 03:14:07;;;;;;;10.32;9.23;;;8.70;94.20;;;;;;5029792;28;20074;-69
2021/03/11 03:16:33;;;;;;;10.70;9.32;;;8.70;94.20;;;;;;5013746;28;20030;-69
2021/03/11 03:19:00;;;;;;;11.48;10.38;;;8.70;94.20;;;;;;5012682;28;20018;-70
2021/03/11 03:21:25;;;;;;;10.88;8.95;;;8.70;94.20;;;;;;5014357;28;20026;-71
2021/03/11 03:23:53;;;;;;;10.13;8.98;;;8.70;94.10;;;;;;5013250;28;20084;-70
2021/03/11 03:26:18;;;;;;;9.40;8.30;;;8.70;94.10;;;;;;5013296;28;20052;-70
2021/03/11 03:28:44;;;;;;;8.90;7.93;;;8.70;94.40;;;;;;5013086;28;20434;-70
2021/03/11 03:31:10;;;;;;;15.52;9.95;;;8.70;94.10;;;;;;5014019;28;20061;-70
2021/03/11 03:33:36;;;;;;;11.13;8.63;;;8.70;94.20;;;;;;5013690;28;20108;-69
2021/03/11 03:36:02;;;;;;;13.43;10.10;;;8.80;94.20;;;;;;5014402;28;20066;-69
2021/03/11 03:38:28;;;;;;;9.23;8.27;;;8.80;94.30;;;;;;5013986;28;20022;-70
2021/03/11 03:40:57;;;;;;;9.93;8.93;;;8.80;94.40;;;;;;5013555;28;20049;-68
2021/03/11 03:43:30;;;;;;;9.43;7.88;;;8.80;94.50;;;;;;5013805;28;20018;-69
2021/03/11 03:46:04;;;;;;;9.98;8.90;;;8.80;94.60;;;;;;5014289;28;20018;-70
2021/03/11 03:48:43;;;;;;;14.55;12.25;;;8.80;94.70;;;;;;5013152;28;20041;-70
2021/03/11 03:51:10;;;;;;;9.68;7.85;;;8.80;94.80;;;;;;5012477;28;20041;-69
2021/03/11 03:53:49;;;;;;;9.75;8.50;;;8.80;94.90;;;;;;5013819;28;20053;-70
2021/03/11 03:56:28;;;;;;;10.27;9.07;;;8.80;95.00;;;;;;5029002;28;20030;-70
2021/03/11 03:58:57;;;;;;;10.02;8.45;;;8.90;95.10;;;;;;5013675;28;20105;-70
2021/03/11 04:01:27;;;;;;;9.43;8.05;;;8.90;95.10;;;;;;5012838;28;20421;-71
2021/03/11 04:03:54;;;;;;;10.90;9.70;;;8.90;95.10;;;;;;5012835;28;20045;-70
2021/03/11 04:06:20;;;;;;;10.52;9.43;;;8.90;95.20;;;;;;5028669;28;20037;-71
2021/03/11 04:08:47;;;;;;;12.38;9.25;;;8.90;95.20;;;;;;5013006;28;20037;-70
2021/03/11 04:11:15;;;;;;;9.05;8.05;;;8.90;95.30;;;;;;5013392;28;20030;-70
2021/03/11 04:13:41;;;;;;;25.00;18.73;;;8.90;95.30;;;;;;5005030;28;20047;-68
2021/03/11 04:16:07;;;;;;;27.92;25.00;;;8.90;95.40;;;;;;4993393;28;20049;-70
2021/03/11 04:18:34;;;;;;;10.35;9.25;;;8.90;95.50;;;;;;4992400;28;20026;-71
2021/03/11 04:21:01;;;;;;;10.20;9.05;;;8.90;95.50;;;;;;5008762;28;20109;-67
2021/03/11 04:23:27;;;;;;;9.27;8.38;;;8.90;95.50;;;;;;4992654;28;20022;-69
2021/03/11 04:25:53;;;;;;;10.02;8.95;;;8.90;95.50;;;;;;4992523;28;20084;-71
2021/03/11 04:28:19;;;;;;;11.80;9.15;;;9.00;95.60;;;;;;4992565;28;20029;-72
2021/03/11 04:30:45;;;;;;;10.57;9.48;;;9.00;95.60;;;;;;4992905;28;20045;-70
2021/03/11 04:33:12;;;;;;;10.13;9.05;;;9.00;95.60;;;;;;4993260;28;20026;-70
2021/03/11 04:35:38;;;;;;;11.10;9.90;;;9.00;95.60;;;;;;4991811;28;20487;-70
2021/03/11 04:38:05;;;;;;;10.52;9.43;;;9.00;95.60;;;;;;4990967;28;20033;-71
2021/03/11 04:40:31;;;;;;;10.18;8.90;;;9.00;95.60;;;;;;4991843;28;20015;-70
2021/03/11 04:42:57;;;;;;;9.70;8.35;;;9.10;95.60;;;;;;4992696;28;20375;-70
2021/03/11 04:45:23;;;;;;;11.80;10.60;;;9.10;95.60;;;;;;4993222;28;20046;-70
2021/03/11 04:47:48;;;;;;;11.45;10.25;;;9.10;95.60;;;;;;4993586;28;20019;-71
2021/03/11 04:50:15;;;;;;;10.80;9.70;;;9.10;95.50;;;;;;4991292;28;20038;-70
2021/03/11 04:52:41;;;;;;;10.45;9.27;;;9.20;95.50;;;;;;4993174;28;20109;-70
2021/03/11 04:55:07;;;;;;;10.77;9.68;;;9.20;95.50;;;;;;4992662;28;20101;-71
2021/03/11 04:57:33;;;;;;;23.92;16.98;;;9.20;95.50;;;;;;4993067;28;20027;-69
2021/03/11 05:00:00;;;;;;;11.88;10.05;;;9.30;95.50;;;;;;4993286;28;20495;-69
2021/03/11 05:02:34;;;;;;;10.82;9.75;;;9.30;95.50;;;;;;4992139;28;20084;-70
2021/03/11 05:05:06;;;;;;;19.67;14.40;;;9.30;95.50;;;;;;4991947;28;20153;-68
2021/03/11 05:07:31;;;;;;;11.85;10.20;;;9.30;95.50;;;;;;4992912;28;20026;-71
2021/03/11 05:09:57;;;;;;;12.95;10.52;;;9.40;95.50;;;;;;4992088;28;20425;-70
2021/03/11 05:12:24;;;;;;;13.18;10.25;;;9.40;95.40;;;;;;4992633;28;20522;-72
2021/03/11 05:14:49;;;;;;;12.13;10.27;;;9.40;95.40;;;;;;4992934;28;20128;-69
2021/03/11 05:17:15;;;;;;;12.27;10.02;;;9.40;95.40;;;;;;4992117;28;20082;-69
2021/03/11 05:19:40;;;;;;;15.70;11.13;;;9.50;95.40;;;;;;4993000;28;20025;-69
2021/03/11 05:22:06;;;;;;;13.25;11.20;;;9.50;95.30;;;;;;4991579;28;20478;-68
2021/03/11 05:24:31;;;;;;;20.15;18.13;;;9.50;95.30;;;;;;4992023;28;20499;-69
2021/03/11 05:26:57;;;;;;;13.80;11.38;;;9.60;95.30;;;;;;4992807;28;20030;-69
2021/03/11 05:29:22;;;;;;;13.93;10.98;;;9.60;95.30;;;;;;4992433;28;20089;-69
2021/03/11 05:31:48;;;;;;;20.05;13.25;;;9.60;95.30;;;;;;4992085;28;20042;-68
2021/03/11 05:34:14;;;;;;;14.15;12.18;;;9.60;95.20;;;;;;4991846;28;20026;-72
2021/03/11 05:36:39;;;;;;;12.15;10.60;;;9.60;95.20;;;;;;4991415;28;20034;-70
2021/03/11 05:39:05;;;;;;;13.68;10.55;;;9.70;95.10;;;;;;4994309;28;20014;-72
2021/03/11 05:41:37;;;;;;;12.95;11.13;;;9.70;95.10;;;;;;4996606;28;20109;-70
2021/03/11 05:44:05;;;;;;;15.07;13.57;;;9.70;95.10;;;;;;4997006;28;20030;-69
2021/03/11 05:46:30;;;;;;;18.73;11.73;;;9.70;95.10;;;;;;4995631;28;20034;-68
2021/03/11 05:48:57;;;;;;;15.15;10.30;;;9.70;95.20;;;;;;4996717;28;20030;-69
2021/03/11 05:51:24;;;;;;;13.95;10.50;;;9.70;95.30;;;;;;4995701;28;20040;-68
2021/03/11 05:53:50;;;;;;;12.38;10.30;;;9.70;95.30;;;;;;4996626;28;20073;-69
2021/03/11 05:56:15;;;;;;;13.40;11.02;;;9.70;95.40;;;;;;4996367;28;20508;-70
2021/03/11 05:58:41;;;;;;;12.30;10.13;;;9.70;95.50;;;;;;4996066;28;20386;-70
2021/03/11 06:01:07;;;;;;;13.45;12.05;;;9.70;95.60;;;;;;4996689;28;20066;-70
2021/03/11 06:03:34;;;;;;;13.25;9.75;;;9.60;95.70;;;;;;4996249;28;20023;-71
2021/03/11 06:06:00;;;;;;;13.98;10.95;;;9.70;95.80;;;;;;4994506;28;20359;-70
2021/03/11 06:08:26;;;;;;;13.35;9.48;;;9.70;95.80;;;;;;4995983;28;20023;-70
2021/03/11 06:10:54;;;;;;;11.50;9.90;;;9.70;95.80;;;;;;4996127;28;20026;-72
2021/03/11 06:13:22;;;;;;;10.18;9.15;;;9.70;95.70;;;;;;4993836;28;20129;-70
2021/03/11 06:15:50;;;;;;;14.35;11.73;;;9.80;95.70;;;;;;4996312;28;20027;-70
2021/03/11 06:18:17;;;;;;;13.50;10.55;;;9.80;95.60;;;;;;4995902;28;20037;-69
2021/03/11 06:20:43;;;;;;;11.98;9.00;;;9.80;95.50;;;;;;4995498;28;20058;-70
2021/03/11 06:23:08;;;;;;;9.68;8.13;;;9.90;95.50;;;;;;4995748;28;20046;-70
2021/03/11 06:25:36;;;;;;;11.98;9.20;;;9.80;95.40;;;;;;4994844;28;20110;-70
2021/03/11 06:28:01;;;;;;;13.20;9.48;;;9.80;95.40;;;;;;4995219;28;20528;-69
2021/03/11 06:30:32;;;;;;;9.40;8.13;;;9.80;95.40;;;;;;4995560;28;20159;-71
2021/03/11 06:32:59;;;;;;;11.30;10.07;;;9.80;95.40;;;;;;4995982;28;20026;-71
2021/03/11 06:35:25;;;;;;;23.80;14.25;;;9.90;95.30;;;;;;4993657;28;20085;-71
2021/03/11 06:37:50;;;;;;;10.85;8.43;;;10.00;95.30;;;;;;4994429;28;20419;-70
2021/03/11 06:40:18;;;;;;;12.15;9.85;;;10.00;95.30;;;;;;4993897;28;20463;-70
2021/03/11 06:42:44;;;;;;;9.77;7.53;;;10.10;95.10;;;;;;4994150;28;20030;-70
2021/03/11 06:45:23;;;;;;;14.88;11.88;;;10.10;95.00;;;;;;4994107;28;20114;-69
2021/03/11 06:47:49;;;;;;;24.88;22.02;;;10.20;94.90;;;;;;4995093;28;20026;-70
2021/03/11 06:50:16;;;;;;;11.30;8.02;;;10.20;94.80;;;;;;4994016;28;20030;-72
2021/03/11 06:53:00;;;;;;;12.35;7.82;;;10.30;94.80;;;;;;4994292;28;20113;-70
2021/03/11 06:55:26;;;;;;;11.25;7.93;;;10.30;94.70;;;;;;4994674;28;20578;-70
2021/03/11 06:57:51;;;;;;;11.93;8.00;;;10.40;94.60;;;;;;4995386;28;20039;-70
2021/03/11 07:00:22;;;;;;;36.00;17.77;;;10.40;94.50;;;;;;4995216;28;20014;-70
2021/03/11 07:02:53;;;;;;;11.00;7.87;;;10.50;94.40;;;;;;4994548;28;20427;-70
2021/03/11 07:05:20;;;;;;;11.50;9.57;;;10.50;94.30;;;;;;4994962;28;20308;-72
2021/03/11 07:07:48;;;;;;;9.18;7.10;;;10.40;94.30;;;;;;4993962;28;20026;-71
2021/03/11 07:10:27;;;;;;;9.07;7.05;;;10.50;94.40;;;;;;4992911;28;20030;-70
2021/03/11 07:13:00;;;;;;;12.43;7.55;;;10.50;94.30;;;;;;4995183;28;20521;-70
2021/03/11 07:15:31;;;;;;;10.35;7.07;;;10.40;94.40;;;;;;4994621;28;20062;-70
2021/03/11 07:17:58;;;;;;;10.98;6.90;;;10.30;94.20;;;;;;4994648;28;20087;-70
2021/03/11 07:20:28;;;;;;;12.50;11.18;;;10.30;94.20;;;;;;4994732;28;20049;-70
2021/03/11 07:23:14;;;;;;;6.78;5.65;;;10.30;94.10;;;;;;4992938;28;20486;-71
2021/03/11 07:25:47;;;;;;;7.88;5.13;;;10.40;94.00;;;;;;4995120;28;20030;-69
2021/03/11 07:28:23;;;;;;;7.82;4.80;;;10.40;93.70;;;;;;4994484;28;20101;-69
2021/03/11 07:30:51;;;;;;;9.30;5.07;;;10.40;93.20;;;;;;4994057;28;20606;-69
2021/03/11 07:33:18;;;;;;;16.25;8.32;;;10.50;92.90;;;;;;4992403;28;20022;-68
2021/03/11 07:35:44;;;;;;;21.35;8.35;;;10.60;92.70;;;;;;4989717;28;20117;-69
2021/03/11 07:38:12;;;;;;;12.25;4.45;;;10.60;92.40;;;;;;4993154;28;20110;-72
2021/03/11 07:40:38;;;;;;;12.38;3.90;;;10.60;91.70;;;;;;4992499;28;20487;-69
2021/03/11 07:43:05;;;;;;;8.70;3.60;;;10.70;91.60;;;;;;4985024;28;20065;-70
2021/03/11 07:45:31;;;;;;;10.40;6.97;;;10.80;91.40;;;;;;4990409;28;20029;-71
2021/03/11 07:48:00;;;;;;;11.35;5.13;;;10.90;91.50;;;;;;5007512;28;20034;-72
2021/03/11 07:50:26;;;;;;;24.15;9.80;;;11.00;91.50;;;;;;4998817;28;20031;-72
2021/03/11 07:52:55;;;;;;;5.70;3.83;;;11.00;91.50;;;;;;4993264;28;20084;-72
2021/03/11 07:55:24;;;;;;;12.95;4.55;;;11.10;91.70;;;;;;4993872;28;20029;-72
2021/03/11 07:57:50;;;;;;;7.40;3.63;;;11.20;91.60;;;;;;4993385;28;20057;-72
2021/03/11 08:00:17;;;;;;;7.70;4.22;;;11.50;91.50;;;;;;4991614;28;20058;-71
2021/03/11 08:02:50;;;;;;;15.80;6.25;;;11.60;91.30;;;;;;4994108;28;20034;-70
2021/03/11 08:05:30;;;;;;;8.60;5.20;;;11.80;91.30;;;;;;5012597;28;20037;-70
2021/03/11 08:08:19;;;;;;;9.52;3.97;;;12.00;91.00;;;;;;5012923;28;20049;-71
2021/03/11 08:10:52;;;;;;;7.90;3.08;;;12.00;90.20;;;;;;4999871;28;20054;-71
2021/03/11 08:13:35;;;;;;;18.27;5.75;;;12.00;88.70;;;;;;4992438;28;20057;-72
2021/03/11 08:16:22;;;;;;;14.90;7.15;;;12.10;88.90;;;;;;4993764;28;20038;-72
2021/03/11 08:18:49;;;;;;;9.95;3.38;;;12.30;88.30;;;;;;4992883;28;20026;-71
2021/03/11 08:21:24;;;;;;;6.78;2.72;;;12.40;87.30;;;;;;4991286;28;20030;-71
2021/03/11 08:23:55;;;;;;;6.95;2.55;;;12.50;86.10;;;;;;4992302;28;20054;-72
2021/03/11 08:26:38;;;;;;;11.63;4.28;;;12.70;85.50;;;;;;4992442;28;20030;-74
2021/03/11 08:29:17;;;;;;;13.00;2.88;;;12.80;83.90;;;;;;4992110;28;20038;-72
2021/03/11 08:31:43;;;;;;;13.80;5.80;;;12.90;82.20;;;;;;4993407;28;20505;-72
2021/03/11 08:34:09;;;;;;;14.30;3.22;;;12.90;81.70;;;;;;4992511;28;20026;-72
2021/03/11 08:36:37;;;;;;;19.33;7.28;;;13.00;81.50;;;;;;4992333;28;20045;-74
2021/03/11 08:39:05;;;;;;;12.25;3.53;;;13.00;80.20;;;;;;4993014;28;20480;-73
2021/03/11 08:41:32;;;;;;;13.15;3.80;;;13.00;78.30;;;;;;5009990;28;20076;-72
2021/03/11 08:44:01;;;;;;;13.40;6.18;;;13.00;78.80;;;;;;5012749;28;20048;-74
2021/03/11 08:46:48;;;;;;;15.20;3.40;;;13.00;77.10;;;;;;4991503;28;20026;-77
2021/03/11 08:49:42;;;;;;;17.70;4.30;;;13.10;77.10;;;;;;4991068;28;20455;-72
2021/03/11 08:52:44;;;;;;;14.43;3.05;;;13.10;76.30;;;;;;4972013;28;20058;-73
2021/03/11 08:55:36;;;;;;;10.90;3.22;;;13.10;76.20;;;;;;4971513;28;20436;-73
2021/03/11 08:58:02;;;;;;;13.80;5.13;;;13.20;76.30;;;;;;4972514;28;20027;-73
2021/03/11 09:00:54;;;;;;;18.63;4.20;;;13.20;75.00;;;;;;4971699;28;20396;-73
2021/03/11 09:03:50;;;;;;;15.05;4.95;;;13.20;74.90;;;;;;4977469;28;20054;-73
2021/03/11 09:06:17;;;;;;;37.30;14.88;;;13.30;74.90;;;;;;4979996;28;20041;-73
2021/03/11 09:08:53;;;;;;;20.15;6.05;;;13.30;74.60;;;;;;4990805;28;20526;-72
2021/03/11 09:11:21;;;;;;;17.20;3.67;;;13.40;73.50;;;;;;4991252;28;20121;-73
2021/03/11 09:13:52;;;;;;;20.70;5.38;;;13.30;73.60;;;;;;4990832;28;20046;-73
2021/03/11 09:16:27;;;;;;;18.88;6.10;;;13.30;74.30;;;;;;4990576;28;20172;-73
2021/03/11 09:18:59;;;;;;;16.88;4.55;;;13.20;73.30;;;;;;4991862;28;20069;-70
2021/03/11 09:21:32;;;;;;;28.77;6.95;;;13.20;73.60;;;;;;4991250;28;20026;-72
2021/03/11 09:23:58;;;;;;;21.67;5.85;;;13.20;73.60;;;;;;4992053;28;20069;-72
2021/03/11 09:26:29;;;;;;;20.80;5.47;;;13.20;73.60;;;;;;4992450;28;20046;-72
2021/03/11 09:28:56;;;;;;;18.48;5.38;;;13.20;74.00;;;;;;4992130;28;20030;-70
2021/03/11 09:31:28;;;;;;;18.45;5.38;;;13.30;72.80;;;;;;4990469;28;20034;-71
2021/03/11 09:33:55;;;;;;;19.38;4.82;;;13.30;72.50;;;;;;4992373;28;20594;-71
2021/03/11 09:36:21;;;;;;;21.42;7.05;;;13.40;71.90;;;;;;4992151;28;20030;-73
2021/03/11 09:38:48;;;;;;;19.83;5.60;;;13.50;72.30;;;;;;4990454;28;20027;-73
2021/03/11 09:41:22;;;;;;;19.45;4.82;;;13.50;71.50;;;;;;4991104;28;20026;-73
2021/03/11 09:43:48;;;;;;;20.55;5.10;;;13.50;71.10;;;;;;4992150;28;20421;-71
2021/03/11 09:46:21;;;;;;;46.50;10.63;;;13.60;70.90;;;;;;4992570;28;20108;-72
2021/03/11 09:48:56;;;;;;;25.40;6.22;;;13.60;68.30;;;;;;4992628;28;20018;-72
2021/03/11 09:51:24;;;;;;;28.40;7.22;;;13.50;68.60;;;;;;4991530;28;20123;-72
2021/03/11 09:53:54;;;;;;;24.30;5.72;;;13.50;68.50;;;;;;4992652;28;20098;-73
2021/03/11 09:56:21;;;;;;;18.30;4.85;;;13.50;68.70;;;;;;4991037;28;20137;-72
2021/03/11 09:58:56;;;;;;;21.85;5.95;;;13.40;69.10;;;;;;4991902;28;20105;-73
2021/03/11 10:01:22;;;;;;;27.98;5.80;;;13.40;69.20;;;;;;4992213;28;20475;-73
2021/03/11 10:03:47;;;;;;;19.35;5.20;;;13.40;69.00;;;;;;4992194;28;20061;-73
2021/03/11 10:06:15;;;;;;;18.27;5.38;;;13.30;67.90;;;;;;4991815;28;20030;-71
2021/03/11 10:08:41;;;;;;;19.10;5.07;;;13.30;68.00;;;;;;4992549;28;20477;-71
2021/03/11 10:11:16;;;;;;;22.10;5.30;;;13.20;68.10;;;;;;4991123;28;20038;-71
2021/03/11 10:13:48;;;;;;;21.20;4.65;;;13.10;68.60;;;;;;4990552;28;20038;-71
2021/03/11 10:16:16;;;;;;;20.52;5.40;;;13.10;68.80;;;;;;4992093;28;20105;-71
2021/03/11 10:19:02;;;;;;;24.35;5.30;;;13.00;69.10;;;;;;4991794;28;20031;-71
2021/03/11 10:21:28;;;;;;;21.77;6.03;;;13.00;69.00;;;;;;4990830;28;20018;-72
2021/03/11 10:23:54;;;;;;;22.48;6.97;;;12.90;69.10;;;;;;4992672;28;20019;-72
2021/03/11 10:26:25;;;;;;;23.45;4.78;;;12.90;68.90;;;;;;4994990;28;20022;-71
2021/03/11 10:29:05;;;;;;;23.60;6.72;;;13.00;69.40;;;;;;4995893;28;20037;-71
2021/03/11 10:31:31;;;;;;;30.85;6.25;;;13.00;69.60;;;;;;4995398;28;20471;-72
2021/03/11 10:34:14;;;;;;;20.58;6.25;;;13.10;68.90;;;;;;4995268;28;20045;-70
2021/03/11 10:36:54;;;;;;;22.52;5.57;;;13.00;69.00;;;;;;4994699;28;20026;-71
2021/03/11 10:39:20;;;;;;;22.40;6.00;;;13.00;69.70;;;;;;4995254;28;20029;-72
2021/03/11 10:42:04;;;;;;;20.30;5.28;;;13.00;69.80;;;;;;4993800;28;20018;-73
2021/03/11 10:44:35;;;;;;;22.08;5.65;;;13.00;69.70;;;;;;4995355;28;20398;-72
2021/03/11 10:47:18;;;;;;;22.95;5.53;;;13.00;70.20;;;;;;4993716;28;20026;-73
2021/03/11 10:49:44;;;;;;;22.67;5.88;;;13.10;70.10;;;;;;4994249;28;20074;-73
2021/03/11 10:52:11;;;;;;;23.27;5.82;;;13.20;69.60;;;;;;4995177;28;20049;-71
2021/03/11 10:54:39;;;;;;;29.85;9.82;;;13.20;69.50;;;;;;4993727;28;20025;-71
2021/03/11 10:57:12;;;;;;;30.77;6.15;;;13.20;69.30;;;;;;4994270;28;20030;-72
2021/03/11 10:59:49;;;;;;;23.40;5.38;;;13.20;69.60;;;;;;4994184;28;20463;-71
2021/03/11 11:02:15;;;;;;;22.40;8.70;;;13.10;69.70;;;;;;4992976;28;20019;-72
2021/03/11 11:04:41;;;;;;;32.70;8.90;;;13.10;69.60;;;;;;4993944;28;20022;-74
2021/03/11 11:07:08;;;;;;;21.60;5.70;;;13.00;70.40;;;;;;4995057;28;20022;-73
2021/03/11 11:09:35;;;;;;;22.75;5.43;;;13.00;71.00;;;;;;4993836;28;20130;-73
2021/03/11 11:12:03;;;;;;;22.80;5.22;;;13.00;70.40;;;;;;4977678;28;20030;-73
2021/03/11 11:14:28;;;;;;;24.00;5.25;;;13.00;71.30;;;;;;4994359;28;20344;-72
2021/03/11 11:16:54;;;;;;;24.40;6.72;;;13.00;71.80;;;;;;4992980;28;20030;-72
2021/03/11 11:19:21;;;;;;;22.30;5.45;;;13.00;71.30;;;;;;4994705;28;20137;-71
2021/03/11 11:21:47;;;;;;;22.73;6.82;;;12.90;70.50;;;;;;4977746;28;20030;-72
2021/03/11 11:24:13;;;;;;;23.58;8.95;;;12.90;70.80;;;;;;4976869;28;20507;-73
2021/03/11 11:26:38;;;;;;;26.15;6.75;;;12.80;71.50;;;;;;4993749;28;20359;-72
2021/03/11 11:29:05;;;;;;;24.77;7.53;;;12.80;72.50;;;;;;4994189;28;20057;-72
2021/03/11 11:31:32;;;;;;;17.92;4.43;;;12.80;71.50;;;;;;4993005;28;20035;-72
2021/03/11 11:33:58;;;;;;;18.33;5.68;;;12.80;70.00;;;;;;4994750;28;20033;-73
2021/03/11 11:36:24;;;;;;;16.35;4.43;;;12.90;69.40;;;;;;4993173;28;20027;-72
2021/03/11 11:38:51;;;;;;;23.05;4.60;;;12.90;68.90;;;;;;4994707;28;20081;-72
2021/03/11 11:41:17;;;;;;;21.52;5.43;;;13.00;69.10;;;;;;4993083;28;20117;-72
2021/03/11 11:43:43;;;;;;;18.85;4.70;;;13.00;69.10;;;;;;4992542;28;20041;-72
2021/03/11 11:46:09;;;;;;;21.67;8.57;;;13.00;68.90;;;;;;4992727;28;20041;-73
2021/03/11 11:48:34;;;;;;;21.08;5.68;;;13.00;69.30;;;;;;4993148;28;20479;-71
2021/03/11 11:51:00;;;;;;;26.33;10.43;;;12.90;69.30;;;;;;4992443;28;20034;-73
2021/03/11 11:53:27;;;;;;;28.10;7.75;;;12.90;69.00;;;;;;4992491;28;20165;-75
2021/03/11 11:55:52;;;;;;;18.38;4.88;;;13.00;68.70;;;;;;4994483;28;20439;-72
2021/03/11 11:58:18;;;;;;;21.83;4.85;;;13.10;69.10;;;;;;4993524;28;20054;-73
2021/03/11 12:00:44;;;;;;;18.13;4.30;;;13.10;68.20;;;;;;4994245;28;20471;-72
2021/03/11 12:03:09;;;;;;;21.83;6.63;;;13.10;68.60;;;;;;4993536;28;20104;-72
2021/03/11 12:05:35;;;;;;;21.88;5.82;;;13.10;68.50;;;;;;4993698;28;20061;-72
2021/03/11 12:08:01;;;;;;;31.55;12.18;;;13.10;69.10;;;;;;4994166;28;20117;-74
2021/03/11 12:10:26;;;;;;;21.30;6.28;;;13.10;69.60;;;;;;4993414;28;20041;-72
2021/03/11 12:12:53;;;;;;;29.23;9.57;;;13.20;68.90;;;;;;4993461;28;20034;-74
2021/03/11 12:15:19;;;;;;;46.83;15.45;;;13.20;68.70;;;;;;4993604;28;20090;-74
2021/03/11 12:17:45;;;;;;;18.48;6.07;;;13.20;67.50;;;;;;4993868;28;20058;-72
2021/03/11 12:20:11;;;;;;;22.20;6.45;;;13.20;66.40;;;;;;4991807;28;20018;-72
2021/03/11 12:22:37;;;;;;;16.13;4.43;;;13.20;66.70;;;;;;4993911;28;20045;-70
2021/03/11 12:25:03;;;;;;;19.27;5.13;;;13.20;66.70;;;;;;4992646;28;20026;-72
2021/03/11 12:27:29;;;;;;;21.65;7.45;;;13.10;66.80;;;;;;4991743;28;20057;-71
2021/03/11 12:29:55;;;;;;;18.58;4.15;;;13.10;66.80;;;;;;4993715;28;20120;-72
2021/03/11 12:32:21;;;;;;;23.52;4.65;;;13.00;67.20;;;;;;4992542;28;20035;-71
2021/03/11 12:34:48;;;;;;;20.23;4.95;;;13.00;67.60;;;;;;4993473;28;20103;-72
2021/03/11 12:37:13;;;;;;;15.95;4.18;;;13.00;67.80;;;;;;4993391;28;20022;-72
2021/03/11 12:39:39;;;;;;;20.45;4.07;;;13.00;67.70;;;;;;4991756;28;20022;-72
2021/03/11 12:42:05;;;;;;;20.95;4.75;;;13.20;68.00;;;;;;4993491;28;20511;-72
2021/03/11 12:44:31;;;;;;;21.52;4.22;;;13.30;68.00;;;;;;4993174;28;20030;-72
2021/03/11 12:46:57;;;;;;;17.15;3.97;;;13.40;67.20;;;;;;4992605;28;20022;-72